Lumsden, Canada
Current Conditions -  °F | °C
As of 9:00 PM on Saturday 20 Dec 2014 (Local Time) from CYQR Reporting Station
Moderate Fog Moderate Fog  
Wind Chill: 18°   Ceiling: 200
Heat Index: 18°   Visibility: 0.12mi
Dew Point: 18°   Wind: 3mph
Humidity: 100%   Direction: 190°S
Pressure: 29.67"   Gusts: NA
Location:  50.64°N, 104.87°W
Report Text: CYQR 210300Z 19003KT 1/8SM R13/1000FT/N FZFG BKN002 M08/M08 A2967 RMK FG5ST2 SLP085
Loading
Personal Weather Stations






























Interactive Weather Map New forecast layout! Learn more

10-Day Weather Forecast

Advertisements
Track Severe Weather on mobile